Time;durP1;ratioP1;P1;durP2;ratioP2;P2;SDS_P1;SDS_P2;PMS_P1;PMS_P2;Temp;Humidity;BMP_temperature;BMP_pressure;BME280_temperature;BME280_humidity;BME280_pressure;Samples;Min_cycle;Max_cycle;Signal;HPM_P1;HPM_P2
2023/12/27 00:01:44;;;;;;;7.45;1.23;;;;;;;8.58;100.00;98104.19;5013674;28;20038;-81
2023/12/27 00:04:11;;;;;;;5.03;1.17;;;;;;;8.38;100.00;98118.75;5047452;28;20048;-82
2023/12/27 00:06:38;;;;;;;6.32;1.17;;;;;;;8.53;100.00;98101.53;5030435;28;20100;-81
2023/12/27 00:09:06;;;;;;;8.50;1.20;;;;;;;8.29;100.00;98117.75;5061817;28;20038;-80
2023/12/27 00:11:35;;;;;;;7.65;1.02;;;;;;;8.47;100.00;98122.38;5048406;28;20112;-79
2023/12/27 00:14:02;;;;;;;4.93;1.05;;;;;;;8.51;100.00;98128.03;5015973;28;20191;-81
2023/12/27 00:16:30;;;;;;;6.40;1.05;;;;;;;8.24;100.00;98127.75;5025550;28;20051;-81
2023/12/27 00:18:56;;;;;;;5.70;1.33;;;;;;;8.29;100.00;98120.44;5012209;28;20054;-80
2023/12/27 00:21:24;;;;;;;4.75;1.00;;;;;;;8.48;100.00;98142.91;5032068;28;20038;-79
2023/12/27 00:23:51;;;;;;;2.20;0.93;;;;;;;8.37;100.00;98148.69;5034700;28;20491;-80
2023/12/27 00:26:18;;;;;;;6.75;1.20;;;;;;;8.42;100.00;98152.13;5038299;28;20041;-80
2023/12/27 00:28:54;;;;;;;7.80;1.15;;;;;;;8.48;100.00;98144.78;5051042;28;20040;-81
2023/12/27 00:31:20;;;;;;;7.93;1.20;;;;;;;8.39;100.00;98154.63;5042840;28;20055;-79
2023/12/27 00:33:47;;;;;;;5.85;1.02;;;;;;;8.39;100.00;98152.69;5033967;28;20042;-80
2023/12/27 00:36:19;;;;;;;7.65;1.27;;;;;;;8.41;100.00;98169.44;5026895;28;20451;-80
2023/12/27 00:38:45;;;;;;;10.82;1.35;;;;;;;8.56;100.00;98161.16;5011417;28;20515;-81
2023/12/27 00:41:12;;;;;;;4.45;1.13;;;;;;;8.36;100.00;98158.66;5045592;28;20041;-80
2023/12/27 00:43:40;;;;;;;3.63;1.05;;;;;;;8.38;100.00;98167.31;5024168;28;20075;-80
2023/12/27 00:46:06;;;;;;;6.55;1.13;;;;;;;8.38;100.00;98153.81;5028328;28;20069;-80
2023/12/27 00:48:33;;;;;;;5.63;1.50;;;;;;;8.18;100.00;98167.50;5031772;28;20048;-80
2023/12/27 00:51:02;;;;;;;6.47;1.33;;;;;;;8.25;100.00;98162.56;5024213;28;20512;-80
2023/12/27 00:53:29;;;;;;;2.92;1.08;;;;;;;8.08;100.00;98183.75;5023418;28;20045;-80
2023/12/27 00:55:56;;;;;;;2.67;1.00;;;;;;;8.13;100.00;98178.31;5017357;28;20041;-81
2023/12/27 00:58:23;;;;;;;4.95;1.13;;;;;;;7.95;100.00;98179.03;5028825;28;20104;-80
2023/12/27 01:00:50;;;;;;;9.88;1.25;;;;;;;8.12;100.00;98179.41;5028291;28;20041;-80
2023/12/27 01:03:17;;;;;;;7.88;1.40;;;;;;;8.15;100.00;98184.25;5056777;28;20030;-80
2023/12/27 01:05:44;;;;;;;5.25;1.00;;;;;;;8.18;100.00;98186.38;5045661;28;20046;-80
2023/12/27 01:08:11;;;;;;;4.20;1.00;;;;;;;8.25;100.00;98196.81;5037975;28;20041;-79
2023/12/27 01:10:37;;;;;;;5.28;1.20;;;;;;;8.32;100.00;98179.22;5046995;28;20055;-80
2023/12/27 01:13:04;;;;;;;5.43;1.23;;;;;;;8.28;100.00;98198.97;5030012;28;20054;-80
2023/12/27 01:15:31;;;;;;;8.60;1.30;;;;;;;8.09;100.00;98191.56;5063755;28;20056;-81
2023/12/27 01:17:58;;;;;;;9.40;1.15;;;;;;;8.24;100.00;98193.31;5028051;28;20052;-79
2023/12/27 01:20:27;;;;;;;10.55;1.60;;;;;;;8.10;100.00;98208.56;5028112;28;20049;-80
2023/12/27 01:22:54;;;;;;;6.45;1.52;;;;;;;7.96;100.00;98203.03;5022119;28;20521;-81
2023/12/27 01:25:21;;;;;;;10.23;1.52;;;;;;;8.08;100.00;98184.56;5028818;28;20055;-81
2023/12/27 01:27:48;;;;;;;7.85;1.30;;;;;;;8.18;100.00;98207.94;5028958;28;20527;-81
2023/12/27 01:30:18;;;;;;;7.68;1.20;;;;;;;8.18;100.00;98207.16;5035719;28;20049;-83
2023/12/27 01:32:45;;;;;;;6.10;1.15;;;;;;;8.25;100.00;98226.47;5045191;28;20045;-81
2023/12/27 01:35:15;;;;;;;6.43;1.05;;;;;;;8.31;100.00;98234.25;5026057;28;20054;-79
2023/12/27 01:37:43;;;;;;;5.72;0.90;;;;;;;8.34;100.00;98225.59;5029511;28;20041;-80
2023/12/27 01:40:10;;;;;;;5.93;0.95;;;;;;;8.33;100.00;98223.19;5034678;28;20121;-80
2023/12/27 01:42:39;;;;;;;4.90;1.23;;;;;;;8.25;100.00;98230.00;5016208;28;20033;-81
2023/12/27 01:45:06;;;;;;;7.85;1.20;;;;;;;8.31;100.00;98228.06;5026038;28;20578;-82
2023/12/27 01:47:37;;;;;;;6.40;1.13;;;;;;;8.04;100.00;98237.47;5016374;28;20091;-80
2023/12/27 01:50:07;;;;;;;9.20;1.52;;;;;;;7.97;100.00;98238.88;5023090;28;20083;-80
2023/12/27 01:52:34;;;;;;;7.35;1.20;;;;;;;7.95;100.00;98233.75;5037033;28;20118;-80
2023/12/27 01:55:01;;;;;;;6.55;1.30;;;;;;;7.68;100.00;98232.66;5024735;28;20041;-79
2023/12/27 01:57:28;;;;;;;7.32;1.25;;;;;;;7.51;100.00;98238.41;5025231;28;20072;-81
2023/12/27 01:59:57;;;;;;;4.55;1.30;;;;;;;7.72;100.00;98225.59;5022979;28;20054;-80
2023/12/27 02:02:24;;;;;;;8.23;1.25;;;;;;;7.46;100.00;98222.28;5019654;28;20045;-80
2023/12/27 02:04:51;;;;;;;7.40;1.38;;;;;;;7.68;100.00;98228.06;5016149;28;20128;-81
2023/12/27 02:07:18;;;;;;;8.02;1.52;;;;;;;7.67;100.00;98255.28;5025244;28;20117;-80
2023/12/27 02:09:57;;;;;;;6.72;1.65;;;;;;;7.78;100.00;98251.44;5040790;28;20065;-81
2023/12/27 02:12:25;;;;;;;6.00;1.30;;;;;;;7.99;100.00;98250.19;5046349;28;20029;-79
2023/12/27 02:14:52;;;;;;;6.65;1.40;;;;;;;7.89;100.00;98263.75;5033391;28;20133;-81
2023/12/27 02:17:22;;;;;;;7.18;1.83;;;;;;;7.79;100.00;98253.06;5010586;28;20048;-81
2023/12/27 02:19:51;;;;;;;3.80;1.52;;;;;;;7.77;100.00;98266.78;5031615;28;21721;-81
2023/12/27 02:22:22;;;;;;;8.57;1.48;;;;;;;7.74;100.00;98259.28;5027445;28;20045;-80
2023/12/27 02:24:54;;;;;;;8.30;1.40;;;;;;;7.43;100.00;98263.28;5029935;28;20068;-80
2023/12/27 02:27:22;;;;;;;6.35;1.00;;;;;;;7.31;100.00;98268.16;5031132;28;20708;-78
2023/12/27 02:29:49;;;;;;;5.20;1.10;;;;;;;7.43;100.00;98260.59;5028578;28;20056;-81
2023/12/27 02:32:16;;;;;;;2.85;1.15;;;;;;;7.49;100.00;98254.88;5035158;28;20061;-80
2023/12/27 02:34:43;;;;;;;7.55;1.15;;;;;;;7.36;100.00;98249.28;5024240;28;20450;-81
2023/12/27 02:37:10;;;;;;;3.85;1.15;;;;;;;7.43;100.00;98271.34;5044873;28;20087;-81
2023/12/27 02:39:37;;;;;;;5.82;1.33;;;;;;;7.39;100.00;98270.28;5044717;28;20052;-81
2023/12/27 02:42:04;;;;;;;3.90;1.23;;;;;;;7.62;100.00;98261.50;5044150;28;20048;-80
2023/12/27 02:44:31;;;;;;;5.50;1.45;;;;;;;7.72;100.00;98266.84;5053089;28;20064;-81
2023/12/27 02:46:58;;;;;;;5.25;1.10;;;;;;;7.88;100.00;98264.81;5052329;28;20561;-80
2023/12/27 02:49:24;;;;;;;9.70;1.23;;;;;;;8.08;100.00;98275.44;5050758;28;20110;-81
2023/12/27 02:51:51;;;;;;;7.68;1.25;;;;;;;7.98;100.00;98270.94;5024456;28;20489;-80
2023/12/27 02:54:19;;;;;;;2.60;1.05;;;;;;;7.94;100.00;98269.91;5040914;28;20053;-80
2023/12/27 02:56:45;;;;;;;8.15;1.60;;;;;;;7.79;100.00;98269.22;5020395;28;20100;-80
2023/12/27 02:59:12;;;;;;;9.27;1.42;;;;;;;7.81;100.00;98262.47;5043542;28;20053;-79
2023/12/27 03:01:41;;;;;;;4.85;1.27;;;;;;;7.89;100.00;98271.84;5066190;28;20041;-80
2023/12/27 03:04:08;;;;;;;9.52;1.10;;;;;;;7.75;100.00;98271.66;5041597;28;20696;-81
2023/12/27 03:06:36;;;;;;;7.97;1.15;;;;;;;7.67;100.00;98257.97;5036183;28;20048;-80
2023/12/27 03:09:04;;;;;;;4.75;1.35;;;;;;;7.64;100.00;98251.25;5037404;28;20095;-81
2023/12/27 03:11:31;;;;;;;5.45;1.33;;;;;;;7.88;100.00;98254.84;5052050;28;20424;-82
2023/12/27 03:13:58;;;;;;;4.82;1.00;;;;;;;8.05;100.00;98254.47;5053304;28;20519;-81
2023/12/27 03:16:27;;;;;;;9.48;1.38;;;;;;;7.83;100.00;98264.88;5050925;28;20736;-80
2023/12/27 03:18:54;;;;;;;8.75;1.48;;;;;;;8.05;100.00;98260.63;5042262;28;20107;-80
2023/12/27 03:21:21;;;;;;;7.55;1.58;;;;;;;7.95;100.00;98265.28;5058704;28;20105;-80
2023/12/27 03:23:48;;;;;;;6.45;1.40;;;;;;;8.01;100.00;98248.00;5068337;28;20049;-79
2023/12/27 03:26:16;;;;;;;3.88;1.10;;;;;;;8.18;100.00;98270.75;5040016;28;20052;-79
2023/12/27 03:28:44;;;;;;;7.95;1.25;;;;;;;8.24;100.00;98260.72;5034817;28;20100;-80
2023/12/27 03:31:12;;;;;;;6.05;1.27;;;;;;;8.28;100.00;98252.91;5042031;28;20548;-81
2023/12/27 03:33:39;;;;;;;5.30;1.30;;;;;;;8.43;100.00;98250.06;5036877;28;20041;-80
2023/12/27 03:36:06;;;;;;;6.80;1.30;;;;;;;8.48;100.00;98245.44;5051368;28;20057;-81
2023/12/27 03:38:33;;;;;;;7.85;1.75;;;;;;;8.52;100.00;98268.03;5035301;28;20527;-80
2023/12/27 03:41:02;;;;;;;5.65;1.35;;;;;;;8.51;100.00;98277.25;5051440;28;20068;-79
2023/12/27 03:43:29;;;;;;;6.85;1.23;;;;;;;8.52;100.00;98269.94;5039972;28;20072;-79
2023/12/27 03:45:55;;;;;;;7.85;1.40;;;;;;;8.51;100.00;98276.44;5050949;28;20268;-80
2023/12/27 03:48:23;;;;;;;4.95;1.40;;;;;;;8.58;100.00;98275.00;5062175;28;20057;-78
2023/12/27 03:50:51;;;;;;;5.50;1.70;;;;;;;8.65;100.00;98275.47;5074669;28;20037;-80
2023/12/27 03:53:17;;;;;;;5.85;1.20;;;;;;;8.53;100.00;98258.06;5061171;28;20053;-79
2023/12/27 03:55:44;;;;;;;4.03;1.30;;;;;;;8.50;100.00;98269.41;5066588;28;20049;-79
2023/12/27 03:58:11;;;;;;;8.27;1.70;;;;;;;8.62;100.00;98276.03;5060033;28;20033;-80
2023/12/27 04:00:38;;;;;;;5.05;1.48;;;;;;;8.61;100.00;98279.84;5061897;28;20045;-81
2023/12/27 04:03:06;;;;;;;10.25;1.60;;;;;;;8.52;100.00;98269.94;5062077;28;20534;-82
2023/12/27 04:05:33;;;;;;;2.20;1.20;;;;;;;8.53;100.00;98266.97;5035275;28;20037;-81
2023/12/27 04:08:00;;;;;;;11.52;1.40;;;;;;;8.28;100.00;98283.41;5071220;28;20601;-81
2023/12/27 04:10:31;;;;;;;8.73;2.22;;;;;;;8.44;100.00;98281.38;5063042;28;20041;-83
2023/12/27 04:13:00;;;;;;;5.35;1.67;;;;;;;8.24;100.00;98286.91;5049900;28;20048;-81
2023/12/27 04:15:27;;;;;;;2.50;1.13;;;;;;;8.23;100.00;98286.13;5015385;28;20038;-81
2023/12/27 04:17:53;;;;;;;4.30;1.60;;;;;;;8.13;100.00;98281.59;5047559;28;20045;-80
2023/12/27 04:20:21;;;;;;;7.45;1.65;;;;;;;8.06;100.00;98285.72;5040260;28;20049;-80
2023/12/27 04:22:47;;;;;;;6.72;1.45;;;;;;;7.98;100.00;98286.31;5044742;28;20034;-80
2023/12/27 04:25:14;;;;;;;4.72;1.42;;;;;;;8.07;100.00;98290.03;5054265;28;20075;-80
2023/12/27 04:27:41;;;;;;;7.55;1.48;;;;;;;7.89;100.00;98280.72;5010966;28;20428;-80
2023/12/27 04:30:09;;;;;;;7.32;1.98;;;;;;;7.86;100.00;98277.78;5023153;28;20041;-79
2023/12/27 04:32:36;;;;;;;5.03;1.50;;;;;;;8.02;100.00;98290.88;5034213;28;20056;-81
2023/12/27 04:35:03;;;;;;;11.68;2.10;;;;;;;7.89;100.00;98283.44;5036915;28;20052;-80
2023/12/27 04:37:30;;;;;;;6.38;1.50;;;;;;;8.05;100.00;98286.81;5041684;28;20535;-81
2023/12/27 04:39:57;;;;;;;10.60;2.00;;;;;;;8.03;100.00;98276.28;5035937;28;20041;-81
2023/12/27 04:42:24;;;;;;;9.93;2.08;;;;;;;7.82;100.00;98274.06;5056877;28;20050;-81
2023/12/27 04:44:51;;;;;;;7.40;1.80;;;;;;;7.88;100.00;98291.78;5026476;28;20056;-81
2023/12/27 04:47:17;;;;;;;7.25;1.58;;;;;;;8.01;100.00;98293.84;5019339;28;20652;-82
2023/12/27 04:49:45;;;;;;;7.28;1.40;;;;;;;8.28;100.00;98288.78;5031706;28;20063;-81
2023/12/27 04:52:12;;;;;;;8.55;1.65;;;;;;;8.00;100.00;98297.63;5026503;28;20061;-81
2023/12/27 04:54:39;;;;;;;8.93;1.83;;;;;;;7.84;100.00;98296.13;5019323;28;20050;-82
2023/12/27 04:57:06;;;;;;;4.75;1.48;;;;;;;8.24;100.00;98303.09;5017364;28;20049;-81
2023/12/27 04:59:33;;;;;;;3.83;1.35;;;;;;;8.46;100.00;98290.78;5015286;28;20049;-81
2023/12/27 05:02:00;;;;;;;10.93;1.60;;;;;;;8.51;100.00;98300.72;5007516;28;24414;-81
2023/12/27 05:04:26;;;;;;;9.35;1.70;;;;;;;8.61;100.00;98301.41;5030499;28;20326;-81
2023/12/27 05:06:54;;;;;;;8.52;2.00;;;;;;;8.61;100.00;98297.91;5026811;28;20046;-81
2023/12/27 05:09:21;;;;;;;4.57;1.80;;;;;;;8.58;100.00;98288.50;5027670;28;20076;-82
2023/12/27 05:11:48;;;;;;;5.82;1.30;;;;;;;8.59;100.00;98294.69;5017908;28;20046;-82
2023/12/27 05:14:16;;;;;;;6.20;1.75;;;;;;;8.72;100.00;98313.69;5036986;28;20069;-81
2023/12/27 05:16:46;;;;;;;4.32;1.63;;;;;;;8.58;100.00;98303.88;5030573;28;20038;-80
2023/12/27 05:19:12;;;;;;;7.78;1.65;;;;;;;8.55;100.00;98301.75;5056302;28;20046;-81
2023/12/27 05:21:39;;;;;;;7.80;1.52;;;;;;;8.38;100.00;98307.59;5040194;28;20538;-81
2023/12/27 05:24:06;;;;;;;12.60;1.42;;;;;;;8.44;100.00;98322.63;5036574;28;20041;-81
2023/12/27 05:26:33;;;;;;;7.78;1.48;;;;;;;8.43;100.00;98304.03;5032678;28;20585;-82
2023/12/27 05:29:00;;;;;;;4.75;1.40;;;;;;;8.64;100.00;98314.34;5038425;28;20583;-81
2023/12/27 05:31:27;;;;;;;8.20;1.50;;;;;;;8.81;100.00;98319.28;5037652;28;20049;-80
2023/12/27 05:33:54;;;;;;;3.28;1.30;;;;;;;8.84;100.00;98316.03;5026434;28;20034;-82
2023/12/27 05:36:21;;;;;;;3.58;1.50;;;;;;;8.91;100.00;98302.16;5031729;28;20049;-81
2023/12/27 05:38:48;;;;;;;5.15;1.52;;;;;;;8.80;100.00;98309.56;5052130;28;20076;-81
2023/12/27 05:41:17;;;;;;;5.22;1.70;;;;;;;8.81;100.00;98313.06;5061499;28;20064;-81
2023/12/27 05:43:44;;;;;;;10.05;2.25;;;;;;;8.69;100.00;98302.69;5042081;28;20045;-81
2023/12/27 05:46:11;;;;;;;11.63;2.83;;;;;;;8.71;100.00;98312.13;5047812;28;20493;-79
2023/12/27 05:48:38;;;;;;;9.18;2.85;;;;;;;8.60;100.00;98285.50;5050007;28;20096;-81
2023/12/27 05:51:05;;;;;;;8.68;2.78;;;;;;;8.49;100.00;98325.25;5049373;28;20057;-81
2023/12/27 05:53:32;;;;;;;10.98;3.00;;;;;;;8.62;100.00;98329.22;5011620;28;20783;-80
2023/12/27 05:55:59;;;;;;;10.90;3.38;;;;;;;8.54;100.00;98319.03;5041079;28;20037;-81
2023/12/27 05:58:26;;;;;;;6.30;2.42;;;;;;;8.56;100.00;98325.75;5044979;28;20045;-81
2023/12/27 06:00:53;;;;;;;8.23;1.98;;;;;;;8.53;100.00;98310.13;5037700;28;20053;-80
2023/12/27 06:03:23;;;;;;;3.05;1.42;;;;;;;8.61;100.00;98316.81;5038140;28;20037;-80
2023/12/27 06:05:50;;;;;;;7.65;1.88;;;;;;;8.56;100.00;98312.28;5035865;28;20052;-80
2023/12/27 06:08:20;;;;;;;7.22;1.33;;;;;;;8.56;100.00;98314.16;5019341;28;20073;-79
2023/12/27 06:10:47;;;;;;;8.45;1.50;;;;;;;8.22;100.00;98313.34;5043492;28;21336;-80
2023/12/27 06:13:14;;;;;;;5.43;1.40;;;;;;;8.09;100.00;98312.13;5040035;28;20488;-80
2023/12/27 06:15:41;;;;;;;6.65;1.38;;;;;;;8.20;100.00;98323.63;5021197;28;20056;-80
2023/12/27 06:18:08;;;;;;;10.60;1.90;;;;;;;8.07;100.00;98328.59;5033632;28;20071;-78
2023/12/27 06:20:36;;;;;;;5.63;1.38;;;;;;;7.83;100.00;98302.59;5031477;28;20053;-82
2023/12/27 06:23:03;;;;;;;4.20;1.58;;;;;;;7.95;100.00;98324.59;5039992;28;20045;-80
2023/12/27 06:25:30;;;;;;;6.07;1.25;;;;;;;8.03;100.00;98332.91;5031647;28;20048;-81
2023/12/27 06:27:57;;;;;;;5.45;1.48;;;;;;;7.99;100.00;98331.88;5037946;28;20056;-80
2023/12/27 06:30:25;;;;;;;3.08;1.38;;;;;;;8.15;100.00;98313.69;5031614;28;20072;-81
2023/12/27 06:32:52;;;;;;;6.43;1.73;;;;;;;8.14;100.00;98328.25;5032989;28;20045;-81
2023/12/27 06:35:18;;;;;;;10.52;1.50;;;;;;;7.99;100.00;98328.38;5030462;28;20049;-80
2023/12/27 06:37:45;;;;;;;7.85;1.40;;;;;;;7.99;100.00;98347.25;5029475;28;20046;-80
2023/12/27 06:40:13;;;;;;;4.55;1.40;;;;;;;8.01;100.00;98340.47;5063260;28;20044;-80
2023/12/27 06:42:39;;;;;;;7.53;1.67;;;;;;;8.09;100.00;98350.69;5054429;28;20032;-79
2023/12/27 06:45:07;;;;;;;6.57;1.42;;;;;;;8.20;100.00;98342.50;5052538;28;20077;-81
2023/12/27 06:47:34;;;;;;;7.75;1.55;;;;;;;8.22;100.00;98351.91;5089534;28;20237;-80
2023/12/27 06:50:00;;;;;;;6.05;1.50;;;;;;;7.86;100.00;98351.38;5055178;28;20071;-81
2023/12/27 06:52:28;;;;;;;7.95;1.25;;;;;;;7.79;100.00;98342.00;5059404;28;20064;-81
2023/12/27 06:54:57;;;;;;;6.95;1.27;;;;;;;7.59;100.00;98334.03;5044907;28;20056;-80
2023/12/27 06:57:24;;;;;;;5.68;1.35;;;;;;;7.45;100.00;98337.34;5051552;28;20076;-80
2023/12/27 06:59:50;;;;;;;8.40;1.60;;;;;;;7.60;100.00;98330.25;5049441;28;20105;-77
2023/12/27 07:02:20;;;;;;;6.63;2.22;;;;;;;7.71;100.00;98339.88;5056449;28;20049;-78
2023/12/27 07:04:47;;;;;;;6.07;2.13;;;;;;;7.79;100.00;98334.72;5037340;28;20043;-80
2023/12/27 07:07:14;;;;;;;4.95;1.63;;;;;;;7.79;100.00;98328.50;5046753;28;20049;-79
2023/12/27 07:09:42;;;;;;;6.95;1.73;;;;;;;7.94;100.00;98340.00;5052281;28;20063;-78
2023/12/27 07:12:09;;;;;;;4.20;1.40;;;;;;;8.03;100.00;98357.19;5051858;28;20033;-79
2023/12/27 07:14:36;;;;;;;7.72;1.98;;;;;;;7.90;100.00;98338.13;5048574;28;20048;-79
2023/12/27 07:17:04;;;;;;;3.95;1.90;;;;;;;7.90;100.00;98333.53;5056439;28;20030;-78
2023/12/27 07:19:31;;;;;;;9.05;2.03;;;;;;;7.99;100.00;98345.34;5039648;28;20037;-81
2023/12/27 07:21:58;;;;;;;7.88;2.00;;;;;;;7.94;100.00;98339.19;5043075;28;20134;-80
2023/12/27 07:24:24;;;;;;;6.97;2.00;;;;;;;8.00;100.00;98348.88;5046821;28;20040;-81
2023/12/27 07:26:51;;;;;;;5.80;2.00;;;;;;;7.84;100.00;98341.97;5048263;28;20556;-79
2023/12/27 07:29:18;;;;;;;7.90;1.95;;;;;;;7.76;100.00;98351.44;5051520;28;20041;-79
2023/12/27 07:31:45;;;;;;;8.30;2.08;;;;;;;7.80;100.00;98344.41;5033497;28;20047;-80
2023/12/27 07:34:12;;;;;;;6.07;2.17;;;;;;;7.87;100.00;98346.81;5050963;28;20049;-80
2023/12/27 07:36:38;;;;;;;6.05;1.80;;;;;;;7.65;100.00;98359.84;5048685;28;20533;-80
2023/12/27 07:39:06;;;;;;;5.43;1.95;;;;;;;7.60;100.00;98355.31;5051532;28;20067;-80
2023/12/27 07:41:33;;;;;;;4.45;2.05;;;;;;;7.59;100.00;98347.50;5050187;28;20048;-79
2023/12/27 07:43:59;;;;;;;3.33;1.55;;;;;;;7.25;100.00;98358.94;5050129;28;20080;-80
2023/12/27 07:46:26;;;;;;;3.38;1.52;;;;;;;7.46;100.00;98363.19;5052202;28;20041;-80
2023/12/27 07:48:54;;;;;;;5.53;1.60;;;;;;;7.46;100.00;98363.19;5054518;28;20535;-80
2023/12/27 07:51:21;;;;;;;5.88;1.60;;;;;;;7.37;100.00;98358.66;5056358;28;20454;-80
2023/12/27 07:53:50;;;;;;;6.60;1.30;;;;;;;7.44;100.00;98354.56;5054477;28;20044;-80
2023/12/27 07:56:18;;;;;;;3.22;1.40;;;;;;;7.39;100.00;98349.22;5051957;28;20052;-81
2023/12/27 07:58:48;;;;;;;6.38;1.58;;;;;;;7.48;100.00;98352.91;5047332;28;20052;-82
2023/12/27 08:01:17;;;;;;;6.63;1.90;;;;;;;7.60;100.00;98355.31;5054064;28;20052;-81
2023/12/27 08:03:50;;;;;;;;;;;;;;;7.71;100.00;98356.06;5048484;28;20037;-81
2023/12/27 08:06:17;;;;;;;5.68;1.33;;;;;;;7.83;100.00;98359.19;5046744;28;19951;-81
2023/12/27 08:08:44;;;;;;;4.55;1.80;;;;;;;7.78;100.00;98362.75;5047636;28;20281;-80
2023/12/27 08:11:10;;;;;;;8.40;1.85;;;;;;;7.92;100.00;98368.31;5038108;28;20044;-80
2023/12/27 08:13:37;;;;;;;7.70;1.95;;;;;;;7.97;100.00;98368.28;5044246;28;20053;-80
2023/12/27 08:16:05;;;;;;;4.28;1.85;;;;;;;7.88;100.00;98378.84;5052692;28;20045;-80
2023/12/27 08:18:32;;;;;;;7.20;1.52;;;;;;;7.91;100.00;98359.44;5038686;28;20103;-79
2023/12/27 08:20:59;;;;;;;4.07;1.70;;;;;;;7.87;100.00;98384.53;5024636;28;20136;-80
2023/12/27 08:23:26;;;;;;;6.43;2.80;;;;;;;7.84;100.00;98382.41;5062135;28;20045;-80
2023/12/27 08:25:52;;;;;;;4.50;1.98;;;;;;;7.87;100.00;98381.84;5059750;28;20033;-80
2023/12/27 08:28:19;;;;;;;6.15;1.90;;;;;;;7.94;100.00;98379.63;5057361;28;20052;-79
2023/12/27 08:30:46;;;;;;;6.00;1.73;;;;;;;7.94;100.00;98371.53;5061634;28;20053;-80
2023/12/27 08:33:13;;;;;;;4.30;1.85;;;;;;;8.14;100.00;98384.88;5052463;28;20048;-80
2023/12/27 08:35:40;;;;;;;5.25;1.77;;;;;;;8.04;100.00;98387.66;5047865;28;20057;-80
2023/12/27 08:38:09;;;;;;;8.27;2.47;;;;;;;8.14;100.00;98392.97;5047988;28;20049;-79
2023/12/27 08:40:36;;;;;;;6.68;2.40;;;;;;;8.11;100.00;98388.13;5049167;28;20097;-79
2023/12/27 08:43:03;;;;;;;5.95;2.33;;;;;;;8.07;100.00;98385.22;5048569;28;20053;-79
2023/12/27 08:45:30;;;;;;;7.10;2.40;;;;;;;8.14;100.00;98385.69;5045569;28;20874;-81
2023/12/27 08:47:57;;;;;;;4.50;2.08;;;;;;;8.06;100.00;98374.69;5048959;28;20510;-80
2023/12/27 08:50:24;;;;;;;7.82;2.38;;;;;;;8.21;100.00;98379.19;5044149;28;20051;-80
2023/12/27 08:52:51;;;;;;;6.13;2.40;;;;;;;8.25;100.00;98382.91;5039475;28;20045;-79
2023/12/27 08:55:17;;;;;;;9.80;1.58;;;;;;;8.46;100.00;98381.72;5039934;28;20116;-80
2023/12/27 08:57:45;;;;;;;5.22;1.70;;;;;;;8.62;100.00;98383.97;5042445;28;20136;-82
2023/12/27 09:00:13;;;;;;;7.25;1.95;;;;;;;8.84;100.00;98377.31;5062312;28;20049;-80
2023/12/27 09:02:40;;;;;;;10.85;2.08;;;;;;;9.11;100.00;98381.06;5063087;28;20045;-81
2023/12/27 09:05:07;;;;;;;8.88;1.70;;;;;;;9.11;100.00;98366.78;5062184;28;20057;-81
2023/12/27 09:07:34;;;;;;;8.02;1.85;;;;;;;9.33;100.00;98375.16;5047842;28;20056;-80
2023/12/27 09:10:01;;;;;;;6.88;1.92;;;;;;;9.50;100.00;98375.47;5052844;28;20037;-79
2023/12/27 09:12:28;;;;;;;10.10;2.17;;;;;;;9.73;100.00;98381.97;5042900;28;20072;-77
2023/12/27 09:14:54;;;;;;;10.20;2.08;;;;;;;9.89;100.00;98384.16;5047542;28;20049;-77
2023/12/27 09:17:21;;;;;;;10.50;2.00;;;;;;;10.04;100.00;98385.81;5044548;28;20041;-78
2023/12/27 09:19:48;;;;;;;6.30;2.25;;;;;;;9.93;100.00;98373.56;5052964;28;20143;-78
2023/12/27 09:22:15;;;;;;;8.88;2.33;;;;;;;10.35;100.00;98378.09;5041968;28;20038;-78
2023/12/27 09:24:42;;;;;;;10.35;2.63;;;;;;;10.29;100.00;98365.75;5049812;28;20107;-78
2023/12/27 09:27:12;;;;;;;6.22;2.33;;;;;;;10.56;100.00;98353.09;5062729;28;20088;-79
2023/12/27 09:29:42;;;;;;;9.93;2.35;;;;;;;10.46;100.00;98364.09;5039519;28;20038;-79
2023/12/27 09:32:08;;;;;;;9.73;3.10;;;;;;;10.60;100.00;98354.13;5046682;28;20049;-79
2023/12/27 09:34:35;;;;;;;8.45;2.13;;;;;;;10.63;100.00;98352.72;5047467;28;20059;-78
2023/12/27 09:37:03;;;;;;;22.35;7.28;;;;;;;10.82;100.00;98330.97;5036022;28;20057;-79
2023/12/27 09:39:30;;;;;;;13.60;4.65;;;;;;;10.74;100.00;98326.25;5044512;28;20037;-79
2023/12/27 09:42:00;;;;;;;12.80;4.10;;;;;;;10.56;100.00;98342.25;5046019;28;20041;-79
2023/12/27 09:44:27;;;;;;;13.57;2.83;;;;;;;10.73;100.00;98330.88;5042791;28;20368;-80
2023/12/27 09:46:55;;;;;;;7.35;1.77;;;;;;;10.98;100.00;98340.44;5005532;28;20311;-79
2023/12/27 09:49:23;;;;;;;8.50;2.20;;;;;;;11.38;99.51;98345.03;5032696;28;20045;-78
2023/12/27 09:51:52;;;;;;;5.50;1.80;;;;;;;11.39;97.94;98337.72;5044213;28;20049;-79
2023/12/27 09:54:20;;;;;;;9.20;1.70;;;;;;;11.47;96.72;98337.00;5044596;28;20095;-78
2023/12/27 09:56:47;;;;;;;6.65;1.60;;;;;;;11.37;96.06;98342.63;5037175;28;20050;-79
2023/12/27 09:59:26;;;;;;;7.20;1.45;;;;;;;11.17;99.06;98347.34;5024286;28;20053;-80
2023/12/27 10:02:00;;;;;;;9.48;1.77;;;;;;;11.28;97.54;98331.69;5036422;28;20056;-79
2023/12/27 10:04:42;;;;;;;4.68;1.35;;;;;;;11.31;95.38;98341.13;5033896;28;20086;-80
2023/12/27 10:07:10;;;;;;;6.78;1.70;;;;;;;11.39;97.44;98322.25;5026340;28;20044;-78
2023/12/27 10:09:38;;;;;;;9.32;1.70;;;;;;;11.24;95.73;98328.78;5027733;28;20630;-79
2023/12/27 10:12:07;;;;;;;5.25;1.65;;;;;;;11.19;95.07;98326.19;5044429;28;20045;-79
2023/12/27 10:14:36;;;;;;;6.72;1.70;;;;;;;11.22;94.80;98322.06;5029448;28;20051;-79
2023/12/27 10:17:03;;;;;;;6.57;1.77;;;;;;;11.28;94.63;98318.13;5038000;28;20049;-79
2023/12/27 10:19:40;;;;;;;9.80;2.00;;;;;;;11.31;93.21;98317.53;5033522;28;20052;-78
2023/12/27 10:22:09;;;;;;;8.00;1.85;;;;;;;11.34;94.02;98313.41;5041824;28;20083;-79
2023/12/27 10:24:37;;;;;;;6.65;1.95;;;;;;;11.26;91.52;98307.59;5038112;28;20071;-79
2023/12/27 10:27:05;;;;;;;6.13;1.67;;;;;;;11.25;92.22;98305.22;5044340;28;20057;-78
2023/12/27 10:29:33;;;;;;;9.95;1.85;;;;;;;11.07;93.13;98315.03;5041808;28;20046;-78
2023/12/27 10:32:01;;;;;;;8.02;1.75;;;;;;;11.00;91.58;98287.53;5033051;28;20524;-79
2023/12/27 10:34:29;;;;;;;9.45;1.70;;;;;;;11.04;90.93;98285.03;5035539;28;20045;-79
2023/12/27 10:36:58;;;;;;;5.28;1.70;;;;;;;10.99;91.94;98291.38;5042414;28;20057;-78
2023/12/27 10:39:25;;;;;;;7.95;1.88;;;;;;;11.00;93.43;98286.72;5038823;28;20045;-80
2023/12/27 10:41:53;;;;;;;6.55;1.42;;;;;;;10.86;94.64;98272.41;5036211;28;20053;-78
2023/12/27 10:44:20;;;;;;;8.52;1.70;;;;;;;10.80;92.55;98282.53;5044482;28;20511;-79
2023/12/27 10:46:48;;;;;;;7.40;1.75;;;;;;;10.96;94.24;98267.59;5019452;28;20068;-79
2023/12/27 10:49:17;;;;;;;7.47;1.58;;;;;;;10.74;93.84;98267.47;5031789;28;20559;-78
2023/12/27 10:51:47;;;;;;;11.73;1.92;;;;;;;10.61;93.83;98263.66;5053971;28;20607;-80
2023/12/27 10:54:14;;;;;;;2.95;1.30;;;;;;;10.79;95.88;98248.41;5038357;28;20061;-79
2023/12/27 10:56:41;;;;;;;5.40;1.48;;;;;;;10.78;97.39;98254.16;5047231;28;20050;-80
2023/12/27 10:59:09;;;;;;;5.40;1.75;;;;;;;10.63;96.66;98239.00;5039383;28;20435;-79
2023/12/27 11:01:38;;;;;;;5.70;1.63;;;;;;;10.74;96.30;98243.09;5047108;28;20132;-80
2023/12/27 11:04:09;;;;;;;7.13;1.80;;;;;;;10.83;95.72;98235.88;5045574;28;20080;-79
2023/12/27 11:06:39;;;;;;;9.60;1.75;;;;;;;10.49;92.87;98233.56;5041144;28;20045;-79
2023/12/27 11:09:07;;;;;;;6.57;1.20;;;;;;;10.69;91.23;98226.94;5052608;28;20076;-77
2023/12/27 11:11:38;;;;;;;6.00;1.77;;;;;;;10.64;89.99;98224.34;5079497;28;20053;-78
2023/12/27 11:14:11;;;;;;;7.40;1.40;;;;;;;10.74;90.38;98217.91;5060901;28;20045;-78
2023/12/27 11:16:42;;;;;;;4.25;1.50;;;;;;;10.76;90.58;98221.97;5034222;28;20046;-79
2023/12/27 11:19:09;;;;;;;4.53;1.35;;;;;;;10.79;91.39;98218.63;5043017;28;20116;-79
2023/12/27 11:21:37;;;;;;;8.00;1.23;;;;;;;10.39;91.03;98211.28;5053642;28;20435;-80
2023/12/27 11:24:05;;;;;;;8.10;1.30;;;;;;;10.59;92.65;98202.78;5050291;28;20108;-79
2023/12/27 11:26:36;;;;;;;7.35;1.50;;;;;;;10.67;90.40;98220.22;5045966;28;20393;-79
2023/12/27 11:29:11;;;;;;;4.93;1.42;;;;;;;10.99;90.04;98203.88;5031948;28;20573;-78
2023/12/27 11:31:38;;;;;;;5.07;1.20;;;;;;;10.80;88.14;98195.06;5020963;28;20050;-80
2023/12/27 11:34:06;;;;;;;5.85;1.60;;;;;;;11.07;88.51;98182.25;5037532;28;20051;-78